Latest Weather Observations for Mandora

IDW60801

Issued at 7:12 am WST Wednesday 19 June 2019 (issued every 10 minutes, with the page automatically refreshed every 10 minutes)

About weather observations | Map of weather stations | Latest weather observations for WA | Other Formats
Station Details ID: 004019 Name: MANDORA Lat: -19.74 Lon: 120.84 Height: 7.5 m
Data from the previous 72 hours. | See also: Recent months at Mandora
Date/Time
WST
Temp
°C
App
Temp
°C
Dew
Point
°C
Rel
Hum
%
Delta-T
°C
Wind Press
QNH
hPa
Press
MSL
hPa
Rain since
9am
mm
Dir  Spd
km/h
Gust
km/h
Spd
kts
Gust
kts
19/07:00am 11.3 9.3 7.2 76 2.0 SE 7 7 4 4 1014.7 1014.6 0.0
19/06:30am 10.5 8.6 7.7 83 1.3 S 7 9 4 5 1014.3 1014.2 0.0
19/06:00am 10.2 8.4 8.1 87 1.0 S 7 9 4 5 1013.9 1013.8 0.0
19/05:30am 11.0 8.7 8.9 87 1.0 SSW 11 13 6 7 1013.7 1013.6 0.0
19/05:00am 11.2 9.6 8.9 86 1.1 S 7 9 4 5 1013.4 1013.3 0.0
19/04:30am 11.5 9.2 8.9 84 1.3 SSW 11 13 6 7 1013.4 1013.3 0.0
19/04:00am 10.1 7.7 6.8 80 1.6 SSW 9 11 5 6 1013.4 1013.3 0.0
19/03:30am 10.4 8.0 6.9 79 1.7 SSW 9 11 5 6 1013.3 1013.2 0.0
19/03:00am 10.8 8.1 7.3 79 1.7 SSW 11 13 6 7 1013.5 1013.4 0.0
19/02:30am 9.9 7.1 5.1 72 2.2 SSW 9 11 5 6 1013.6 1013.5 0.0
19/02:00am 10.6 7.9 5.4 70 2.4 S 9 13 5 7 1013.9 1013.8 0.0
19/01:30am 10.5 7.8 5.7 72 2.2 S 9 13 5 7 1014.0 1013.9 0.0
19/01:00am 10.1 7.3 5.3 72 2.2 S 9 11 5 6 1014.2 1014.1 0.0
19/12:30am 9.8 7.1 5.4 74 2.0 S 9 11 5 6 1014.4 1014.3 0.0
19/12:00am 8.9 6.7 5.1 77 1.7 S 6 9 3 5 1014.5 1014.4 0.0
 
Date/Time
WST
Temp
°C
App
Temp
°C
Dew
Point
°C
Rel
Hum
%
Delta-T
°C
Wind Press
QNH
hPa
Press
MSL
hPa
Rain since
9am
mm
Dir  Spd
km/h
Gust
km/h
Spd
kts
Gust
kts
18/11:30pm 9.3 8.2 5.1 75 1.9 CALM 0 0 0 0 1014.6 1014.5 0.0
18/11:00pm 9.9 9.1 6.3 78 1.7 CALM 0 0 0 0 1014.9 1014.8 0.0
18/10:30pm 10.6 9.2 5.6 71 2.3 SSW 2 6 1 3 1015.0 1014.9 0.0
18/10:00pm 11.8 9.7 6.7 71 2.4 SW 7 9 4 5 1015.0 1014.9 0.0
18/09:30pm 11.9 9.9 7.2 73 2.3 WSW 7 7 4 4 1015.1 1015.0 0.0
18/09:00pm 12.5 10.5 7.0 69 2.6 W 7 9 4 5 1014.8 1014.7 0.0
18/08:30pm 13.9 11.6 7.4 65 3.2 WSW 9 11 5 6 1014.6 1014.5 0.0
18/08:00pm 13.6 11.7 7.4 66 3.0 WSW 7 9 4 5 1014.5 1014.4 0.0
18/07:30pm 15.5 14.0 9.2 66 3.2 W 7 9 4 5 1014.2 1014.1 0.0
18/07:00pm 16.0 14.0 8.5 61 3.8 W 9 9 5 5 1014.1 1014.0 0.0
18/06:30pm 17.2 15.1 8.1 55 4.6 WNW 9 9 5 5 1013.8 1013.7 0.0
18/06:00pm 18.9 16.6 7.4 47 5.8 NW 9 11 5 6 1013.6 1013.5 0.0
18/05:30pm 21.1 19.0 6.6 39 7.3 NW 7 9 4 5 1013.3 1013.2 0.0
18/05:00pm 24.1 21.6 6.4 32 9.1 NNW 9 13 5 7 1013.1 1013.0 0.0
18/04:30pm 26.1 22.8 6.2 28 10.3 NNW 13 17 7 9 1012.9 1012.8 0.0
18/04:00pm 27.1 23.9 7.0 28 10.6 NNW 13 20 7 11 1012.9 1012.8 0.0
18/03:30pm 28.1 24.1 6.8 26 11.3 NNW 17 22 9 12 1012.8 1012.7 0.0
18/03:00pm 29.1 24.6 5.9 23 12.2 N 19 26 10 14 1012.8 1012.7 0.0
18/02:30pm 29.8 25.6 5.8 22 12.6 N 17 24 9 13 1012.8 1012.7 0.0
18/02:00pm 30.9 26.6 5.3 20 13.5 N 17 26 9 14 1012.7 1012.6 0.0
18/01:30pm 30.8 26.1 3.0 17 14.0 NNE 17 26 9 14 1012.9 1012.8 0.0
18/01:00pm 31.7 27.9 3.7 17 14.4 ENE 13 20 7 11 1013.2 1013.1 0.0
18/12:30pm 30.5 26.9 2.7 17 13.9 NE 11 20 6 11 1013.8 1013.7 0.0
18/12:00pm 30.9 27.5 3.8 18 13.9 E 11 17 6 9 1014.3 1014.2 0.0
18/11:30am 29.8 25.6 3.7 19 13.3 ESE 15 24 8 13 1014.7 1014.6 0.0
18/11:00am 28.4 24.1 3.3 20 12.5 ESE 15 22 8 12 1014.9 1014.8 0.0
18/10:30am 27.7 22.9 2.7 20 12.3 ESE 17 26 9 14 1015.2 1015.1 0.0
18/10:00am 26.4 21.5 1.7 20 11.8 ESE 17 30 9 16 1015.6 1015.5 0.0
18/09:30am 24.6 18.9 0.8 21 11.1 ESE 20 32 11 17 1016.0 1015.9 0.0
18/09:00am 22.9 17.1 0.1 22 10.3 SE 20 33 11 18 1016.2 1016.1 0.0
18/08:30am 21.9 15.6 -0.8 22 10.0 SE 22 35 12 19 1016.0 1015.9 0.0
18/08:00am 20.4 14.4 -1.4 23 9.4 SE 20 32 11 17 1015.8 1015.7 0.0
18/07:30am 18.9 13.5 -1.5 25 8.7 SE 17 30 9 16 1015.5 1015.4 0.0
18/07:00am 17.8 13.1 -1.9 26 8.2 SE 13 20 7 11 1015.3 1015.2 0.0
18/06:30am 17.7 13.0 -2.0 26 8.2 SE 13 20 7 11 1015.0 1014.9 0.0
18/06:00am 17.8 13.1 -1.9 26 8.2 SE 13 20 7 11 1014.8 1014.7 0.0
18/05:30am 18.2 13.5 -2.1 25 8.4 SE 13 19 7 10 1014.8 1014.7 0.0
18/05:00am 18.7 13.9 -2.3 24 8.7 SE 13 24 7 13 1014.6 1014.5 0.0
18/04:30am 19.3 14.2 -2.3 23 9.0 SE 15 22 8 12 1014.4 1014.3 0.0
18/04:00am 19.4 14.3 -2.2 23 9.1 SE 15 24 8 13 1014.3 1014.2 0.0
18/03:30am 19.5 14.7 -2.8 22 9.3 SE 13 22 7 12 1014.4 1014.3 0.0
18/03:00am 19.5 14.7 -2.8 22 9.3 SSE 13 20 7 11 1014.6 1014.5 0.0
18/02:30am 19.7 14.5 -2.6 22 9.3 SE 15 24 8 13 1014.6 1014.5 0.0
18/02:00am 19.6 14.9 -2.1 23 9.1 SSE 13 24 7 13 1014.8 1014.7 0.0
18/01:30am 19.7 14.2 -2.0 23 9.2 SSE 17 26 9 14 1015.0 1014.9 0.0
18/01:00am 20.3 14.8 -2.1 22 9.5 SSE 17 26 9 14 1015.3 1015.2 0.0
18/12:30am 20.6 15.1 -1.8 22 9.6 SSE 17 26 9 14 1015.2 1015.1 0.0
18/12:00am 21.1 16.1 -1.4 22 9.7 SSE 15 22 8 12 1015.3 1015.2 0.0
 
Date/Time
WST
Temp
°C
App
Temp
°C
Dew
Point
°C
Rel
Hum
%
Delta-T
°C
Wind Press
QNH
hPa
Press
MSL
hPa
Rain since
9am
mm
Dir  Spd
km/h
Gust
km/h
Spd
kts
Gust
kts
17/11:30pm 21.1 16.2 -0.8 23 9.6 SSE 15 22 8 12 1015.4 1015.3 0.0
17/11:00pm 20.6 16.1 -0.1 25 9.2 SSE 13 19 7 10 1015.6 1015.5 0.0
17/10:30pm 20.0 15.5 -0.1 26 8.9 SSE 13 19 7 10 1015.7 1015.6 0.0
17/10:00pm 18.9 14.5 0.5 29 8.1 SSE 13 17 7 9 1016.0 1015.9 0.0
17/09:30pm 18.3 14.7 0.9 31 7.7 SSE 9 15 5 8 1015.8 1015.7 0.0
17/09:00pm 19.7 15.7 0.7 28 8.5 SSE 11 17 6 9 1015.6 1015.5 0.0
17/08:30pm 20.2 15.8 0.1 26 8.9 SSE 13 19 7 10 1015.5 1015.4 0.0
17/08:00pm 20.5 16.1 0.4 26 9.0 SSE 13 15 7 8 1015.2 1015.1 0.0
17/07:30pm 19.4 15.5 0.9 29 8.3 S 11 15 6 8 1015.0 1014.9 0.0
17/07:00pm 15.6 13.0 4.0 46 5.4 S 7 9 4 5 1014.8 1014.7 0.0
17/06:30pm 17.2 15.9 4.2 42 6.1 CALM 0 0 0 0 1014.6 1014.5 0.0
17/06:00pm 20.3 17.8 3.5 33 8.0 NW 6 7 3 4 1014.3 1014.2 0.0
17/05:30pm 24.4 21.7 2.5 24 10.5 SE 6 9 3 5 1014.1 1014.0 0.0
17/05:00pm 28.6 24.6 0.3 16 13.4 SE 11 22 6 12 1013.9 1013.8 0.0
17/04:30pm 29.6 25.0 -0.7 14 14.2 SE 13 20 7 11 1013.7 1013.6 0.0
17/04:00pm 30.4 26.3 -0.1 14 14.6 SE 11 20 6 11 1013.4 1013.3 0.0
17/03:30pm 30.5 25.9 -1.0 13 14.8 SE 13 22 7 12 1013.3 1013.2 0.0
17/03:00pm 31.0 26.5 -0.6 13 15.0 SE 13 20 7 11 1013.5 1013.4 0.0
17/02:30pm 30.9 26.0 -0.7 13 15.0 ESE 15 28 8 15 1013.4 1013.3 0.0
17/02:00pm 30.5 25.5 -1.0 13 14.8 SE 15 28 8 15 1013.7 1013.6 0.0
17/01:30pm 30.7 25.9 0.2 14 14.7 ESE 15 22 8 12 1014.0 1013.9 0.0
17/01:00pm 29.9 24.8 0.5 15 14.1 SE 17 28 9 15 1014.7 1014.6 0.0
17/12:30pm 29.7 24.9 0.3 15 14.1 SE 15 32 8 17 1015.4 1015.3 0.0
17/12:00pm 29.5 24.3 0.2 15 14.0 SE 17 30 9 16 1015.9 1015.8 0.0
17/11:30am 28.0 22.6 -1.0 15 13.4 SE 17 32 9 17 1016.6 1016.5 0.0
17/11:00am 27.2 21.3 -0.8 16 12.9 SE 20 30 11 16 1017.1 1017.0 0.0
17/10:30am 26.7 21.4 -0.3 17 12.5 SE 17 30 9 16 1017.3 1017.2 0.0
17/10:00am 25.0 19.1 -0.9 18 11.7 SE 20 35 11 19 1017.8 1017.7 0.0
17/09:30am 23.4 17.4 -1.5 19 11.0 SE 20 32 11 17 1018.2 1018.1 0.0
17/09:00am 22.0 16.2 -1.3 21 10.2 SE 19 30 10 16 1018.4 1018.3 0.0
17/08:30am 20.5 14.7 -1.3 23 9.4 SE 19 30 10 16 1018.5 1018.4 0.0
17/08:00am 19.5 13.6 -1.0 25 8.8 SSE 20 32 11 17 1018.2 1018.1 0.0
17/07:30am 18.1 12.7 -1.2 27 8.2 SSE 17 30 9 16 1017.9 1017.8 0.0
17/07:00am 16.4 11.7 -1.7 29 7.4 SE 13 22 7 12 1017.6 1017.5 0.0
17/06:30am 16.0 11.3 -2.0 29 7.3 SSE 13 24 7 13 1017.3 1017.2 0.0
17/06:00am 16.3 11.2 -1.7 29 7.4 SE 15 24 8 13 1016.9 1016.8 0.0
17/05:30am 16.3 11.6 -1.7 29 7.4 SE 13 22 7 12 1016.8 1016.7 0.0
17/05:00am 16.7 12.0 -1.9 28 7.6 SE 13 24 7 13 1016.4 1016.3 0.0
17/04:30am 16.8 11.7 -2.3 27 7.8 SE 15 26 8 14 1016.4 1016.3 0.0
17/04:00am 16.8 11.7 -2.3 27 7.8 SSE 15 26 8 14 1016.2 1016.1 0.0
17/03:30am 17.1 11.5 -2.5 26 8.0 SSE 17 24 9 13 1016.3 1016.2 0.0
17/03:00am 17.0 11.5 -2.1 27 7.8 SSE 17 24 9 13 1016.4 1016.3 0.0
17/02:30am 17.1 11.5 -2.5 26 8.0 SSE 17 24 9 13 1016.4 1016.3 0.0
17/02:00am 16.5 11.4 -2.0 28 7.6 SSE 15 20 8 11 1016.4 1016.3 0.0
17/01:30am 16.4 10.9 -2.1 28 7.6 SSE 17 22 9 12 1016.6 1016.5 0.0
17/01:00am 15.9 10.8 -2.1 29 7.3 SSE 15 19 8 10 1016.9 1016.8 0.0
17/12:30am 16.4 11.3 -2.1 28 7.6 S 15 20 8 11 1017.1 1017.0 0.0
17/12:00am 16.5 11.7 -2.5 27 7.7 SSE 13 20 7 11 1017.1 1017.0 0.0
 
Date/Time
WST
Temp
°C
App
Temp
°C
Dew
Point
°C
Rel
Hum
%
Delta-T
°C
Wind Press
QNH
hPa
Press
MSL
hPa
Rain since
9am
mm
Dir  Spd
km/h
Gust
km/h
Spd
kts
Gust
kts
16/11:30pm 16.2 11.4 -2.3 28 7.5 S 13 17 7 9 1017.2 1017.1 0.0
16/11:00pm 16.4 11.6 -2.6 27 7.7 SSE 13 17 7 9 1017.3 1017.2 0.0
16/10:30pm 16.4 11.6 -2.6 27 7.7 SSE 13 20 7 11 1017.4 1017.3 0.0
16/10:00pm 16.7 11.5 -2.4 27 7.8 SSE 15 19 8 10 1017.5 1017.4 0.0
16/09:30pm 17.3 12.5 -2.4 26 8.1 S 13 19 7 10 1017.6 1017.5 0.0
16/09:00pm 18.1 13.0 -2.2 25 8.4 S 15 20 8 11 1017.5 1017.4 0.0
16/08:30pm 18.3 13.1 -2.6 24 8.6 S 15 17 8 9 1017.5 1017.4 0.0
16/08:00pm 18.5 13.6 -3.0 23 8.8 S 13 19 7 10 1017.2 1017.1 0.0
16/07:30pm 19.2 14.3 -3.0 22 9.2 S 13 19 7 10 1017.0 1016.9 0.0
16/07:00pm 19.6 15.1 -3.3 21 9.4 S 11 15 6 8 1016.6 1016.5 0.0
16/06:30pm 19.6 15.1 -3.3 21 9.4 SSE 11 13 6 7 1016.3 1016.2 0.0
16/06:00pm 21.7 17.1 -4.4 17 10.7 SSE 11 13 6 7 1015.9 1015.8 0.0
16/05:30pm 24.6 19.9 -4.6 14 12.3 SSE 11 15 6 8 1015.6 1015.5 0.0
16/05:00pm 26.6 22.0 -4.0 13 13.2 SSE 11 20 6 11 1015.2 1015.1 0.0
16/04:30pm 27.6 22.2 -4.3 12 13.8 SSE 15 20 8 11 1014.9 1014.8 0.0
16/04:00pm 28.2 22.5 -3.9 12 14.1 SSE 17 30 9 16 1014.7 1014.6 0.0
16/03:30pm 28.9 23.8 -2.3 13 14.2 SE 15 26 8 14 1014.6 1014.5 0.0
16/03:00pm 28.6 22.9 -3.6 12 14.3 SSE 17 28 9 15 1014.6 1014.5 0.0
16/02:30pm 29.1 23.8 -3.2 12 14.5 SE 15 24 8 13 1014.9 1014.8 0.0
16/02:00pm 28.5 22.8 -3.6 12 14.2 SE 17 28 9 15 1015.2 1015.1 0.0
16/01:30pm 28.8 23.3 -2.3 13 14.1 SE 17 28 9 15 1015.4 1015.3 0.0
16/01:00pm 28.2 22.5 -0.9 15 13.5 SE 19 35 10 19 1015.8 1015.7 0.0
16/12:30pm 27.3 21.9 -1.6 15 13.1 SE 17 30 9 16 1016.5 1016.4 0.0
16/12:00pm 26.3 19.9 -1.5 16 12.5 ESE 22 35 12 19 1017.2 1017.1 0.0
16/11:30am 25.7 19.0 -1.2 17 12.2 ESE 24 35 13 19 1017.8 1017.7 0.0
16/11:00am 25.0 18.8 -0.2 19 11.5 ESE 22 39 12 21 1018.4 1018.3 0.0
16/10:30am 24.8 18.7 0.3 20 11.3 ESE 22 43 12 23 1018.8 1018.7 0.0
16/10:00am 23.4 17.6 -0.1 21 10.6 SE 20 35 11 19 1019.2 1019.1 0.0
16/09:30am 22.3 16.1 -0.4 22 10.1 SE 22 39 12 21 1019.5 1019.4 0.0
16/09:00am 20.8 14.1 -1.1 23 9.5 ESE 24 39 13 21 1019.7 1019.6 0.0
16/08:30am 19.7 14.0 -0.9 25 8.9 ESE 19 32 10 17 1019.5 1019.4 0.0
16/08:00am 17.8 12.1 -0.9 28 7.9 SE 19 33 10 18 1019.3 1019.2 0.0
16/07:30am 15.8 10.8 -1.3 31 7.1 SE 15 28 8 15 1019.1 1019.0 0.0

Other formats

Comma delimited format used in spreadsheet applications
http://www.bom.gov.au/fwo/IDW60801/IDW60801.94200.axf

JavaScript Object Notation format (JSON) in row-major order
http://www.bom.gov.au/fwo/IDW60801/IDW60801.94200.json

Data quality

Most of these data are generated automatically and are frequently updated. Quality checks on data are not normally performed. It is possible for incorrect values to appear. Refer to information at About Latest Weather Observations and please check the disclaimer before using these data.